createdAt,value
2019-05-29T00:05:00.966Z,7.74
2019-05-29T00:15:04.510Z,8.12
2019-05-29T00:25:08.531Z,8.21
2019-05-29T00:35:10.715Z,8.31
2019-05-29T00:45:13.440Z,8.61
2019-05-29T00:55:15.024Z,8.46
2019-05-29T01:05:16.663Z,8.32
2019-05-29T01:15:19.556Z,8.41
2019-05-29T01:25:21.160Z,8.44
2019-05-29T01:35:22.681Z,7.96
2019-05-29T01:45:24.100Z,7.99
2019-05-29T01:55:25.603Z,8.00
2019-05-29T02:05:28.176Z,7.65
2019-05-29T02:15:32.566Z,7.35
2019-05-29T02:25:33.227Z,7.12
2019-05-29T02:35:34.767Z,7.19
2019-05-29T02:45:52.926Z,7.79
2019-05-29T02:55:39.666Z,7.67
2019-05-29T03:05:41.194Z,7.37
2019-05-29T03:15:42.817Z,8.09
2019-05-29T03:25:44.256Z,8.28
2019-05-29T03:35:48.210Z,8.62
2019-05-29T03:45:49.017Z,8.39
2019-05-29T03:55:50.469Z,8.43
2019-05-29T04:05:51.901Z,8.54
2019-05-29T04:15:54.251Z,8.97
2019-05-29T04:25:56.577Z,9.16
2019-05-29T04:35:58.006Z,9.73
2019-05-29T04:45:59.422Z,9.52
2019-05-29T04:56:00.875Z,9.97
2019-05-29T05:06:02.525Z,10.19
2019-05-29T05:16:04.143Z,10.07
2019-05-29T05:26:05.705Z,10.57
2019-05-29T05:36:07.236Z,10.91
2019-05-29T05:46:08.741Z,11.48
2019-05-29T05:56:10.431Z,11.79
2019-05-29T06:06:11.884Z,11.56
2019-05-29T06:16:13.321Z,12.06
2019-05-29T06:26:14.784Z,12.77
2019-05-29T06:36:16.276Z,13.68
2019-05-29T06:46:17.810Z,14.55
2019-05-29T06:56:19.259Z,15.48
2019-05-29T07:06:20.886Z,21.08
2019-05-29T07:16:22.330Z,21.87
2019-05-29T07:26:23.872Z,19.42
2019-05-29T07:36:25.358Z,26.92
2019-05-29T07:46:26.806Z,26.75
2019-05-29T07:56:28.277Z,24.45
2019-05-29T08:06:29.713Z,22.33
2019-05-29T08:16:31.179Z,29.80
2019-05-29T08:26:32.794Z,22.50
2019-05-29T08:36:34.369Z,20.62
2019-05-29T08:46:35.811Z,30.84
2019-05-29T08:56:37.318Z,23.11
2019-05-29T09:06:38.780Z,21.58
2019-05-29T09:16:40.195Z,20.03
2019-05-29T09:26:41.733Z,18.75
2019-05-29T09:36:43.422Z,19.27
2019-05-29T09:46:44.862Z,18.68
2019-05-29T09:56:46.309Z,19.09
2019-05-29T10:06:48.116Z,18.72
2019-05-29T10:16:49.634Z,19.39
2019-05-29T10:26:51.371Z,20.89
2019-05-29T10:36:54.645Z,21.30
2019-05-29T10:46:56.750Z,18.58
2019-05-29T10:56:58.667Z,19.56
2019-05-29T11:07:00.446Z,19.07
2019-05-29T11:17:01.902Z,18.41
2019-05-29T11:27:04.053Z,18.75
2019-05-29T11:37:05.631Z,21.11
2019-05-29T11:47:07.175Z,21.71
2019-05-29T11:57:08.759Z,20.94
2019-05-29T12:07:10.221Z,21.34
2019-05-29T12:17:11.665Z,22.21
2019-05-29T12:27:13.311Z,21.19
2019-05-29T12:37:14.856Z,20.55
2019-05-29T12:47:16.321Z,20.66
2019-05-29T12:57:18.126Z,20.16
2019-05-29T13:07:19.670Z,19.39
2019-05-29T13:17:21.318Z,19.85
2019-05-29T13:27:22.749Z,20.64
2019-05-29T13:37:24.219Z,21.97
2019-05-29T13:47:25.673Z,22.46
2019-05-29T13:57:27.149Z,22.09
2019-05-29T14:07:28.718Z,19.96
2019-05-29T14:17:30.178Z,19.53
2019-05-29T14:27:31.641Z,20.33
2019-05-29T14:37:33.117Z,20.85
2019-05-29T14:47:34.553Z,20.58
2019-05-29T14:57:36.110Z,20.40
2019-05-29T15:07:37.665Z,19.04
2019-05-29T15:17:39.215Z,19.26
2019-05-29T15:27:40.745Z,19.59
2019-05-29T15:37:42.191Z,19.40
2019-05-29T15:47:43.624Z,19.56
2019-05-29T15:57:45.089Z,19.64
2019-05-29T16:07:46.541Z,18.93
2019-05-29T16:17:48.101Z,18.71
2019-05-29T16:27:49.660Z,18.77
2019-05-29T16:37:51.227Z,18.58
2019-05-29T16:47:52.667Z,18.43
2019-05-29T16:57:54.117Z,17.36
2019-05-29T17:07:55.978Z,16.73
2019-05-29T17:17:57.441Z,16.90
2019-05-29T17:27:58.886Z,16.79
2019-05-29T17:38:00.480Z,16.45
2019-05-29T17:48:02.128Z,15.64
2019-05-29T17:58:04.704Z,15.50
2019-05-29T18:08:06.402Z,15.16
2019-05-29T18:18:08.047Z,15.06
2019-05-29T18:28:09.527Z,14.95
2019-05-29T18:38:11.075Z,13.91
2019-05-29T18:48:12.635Z,14.26
2019-05-29T18:58:14.088Z,13.78
2019-05-29T19:08:15.869Z,13.42
2019-05-29T19:18:17.477Z,12.90
2019-05-29T19:28:18.910Z,12.46
2019-05-29T19:38:20.467Z,12.30
2019-05-29T19:48:23.021Z,12.11
2019-05-29T19:58:25.578Z,11.86
2019-05-29T20:08:30.917Z,11.49
2019-05-29T20:18:32.087Z,11.11
2019-05-29T20:28:34.251Z,10.52
2019-05-29T20:38:37.099Z,10.11
2019-05-29T20:48:38.845Z,9.55
2019-05-29T20:58:41.968Z,9.15
2019-05-29T21:08:43.556Z,8.76
2019-05-29T21:18:45.121Z,8.34
2019-05-29T21:28:50.442Z,7.83
2019-05-29T21:38:49.930Z,7.71
2019-05-29T21:48:51.411Z,7.59
2019-05-29T21:59:03.164Z,7.25
2019-05-29T22:08:57.247Z,7.02
2019-05-29T22:19:03.832Z,7.00
2019-05-29T22:29:17.045Z,6.41
2019-05-29T22:39:07.819Z,6.44
2019-05-29T22:49:09.843Z,6.13
2019-05-29T22:59:11.525Z,5.92
2019-05-29T23:09:14.171Z,5.68
2019-05-29T23:19:15.617Z,5.76
2019-05-29T23:29:17.183Z,5.50
2019-05-29T23:39:18.857Z,6.15
2019-05-29T23:49:20.341Z,6.55
2019-05-29T23:59:21.959Z,7.18
